KLM1298 SAZR-SAEZ
Flight info
| Callsign | KLM1298 |
|---|---|
| Flight time | 0h 50m |
| Altitude | 31000 |
| Route | TIMKU IRASU UW68 ASADA |
| Aircraft | B738/M-VGDW/C |
Departure
| Time | 2026-04-18 04:01 |
|---|---|
| Airport | Santa Rosa Airport (SAZR) |
Arrival
| Time | 2026-04-18 04:51 |
|---|---|
| Airport | Ezeiza International Airport - Ministro Pistarini (SAEZ) |
| Time | Latitude | Longitude | Altitude | Speed | Heading |
|---|---|---|---|---|---|
| 2026-04-18 03:48 | -36.59165 | -64.27893 | 629 ft | 0 kts | 309° |
| 2026-04-18 03:54 | -36.59175 | -64.27880 | 629 ft | 2 kts | 327° |
| 2026-04-18 03:54 | -36.59188 | -64.27872 | 629 ft | 2 kts | 343° |
| 2026-04-18 03:54 | -36.59203 | -64.27869 | 629 ft | 2 kts | 2° |
| 2026-04-18 03:54 | -36.59218 | -64.27872 | 628 ft | 1 kts | 20° |
| 2026-04-18 03:55 | -36.59224 | -64.27876 | 628 ft | 1 kts | 27° |
| 2026-04-18 03:55 | -36.59227 | -64.27877 | 628 ft | 0 kts | 25° |
| 2026-04-18 03:57 | -36.59179 | -64.27814 | 629 ft | 12 kts | 63° |
| 2026-04-18 03:57 | -36.59146 | -64.27692 | 626 ft | 15 kts | 103° |
| 2026-04-18 03:57 | -36.59251 | -64.27668 | 626 ft | 18 kts | 189° |
| 2026-04-18 03:58 | -36.59394 | -64.27702 | 625 ft | 23 kts | 191° |
| 2026-04-18 03:58 | -36.59577 | -64.27743 | 624 ft | 28 kts | 190° |
| 2026-04-18 03:58 | -36.59756 | -64.27785 | 624 ft | 11 kts | 197° |
| 2026-04-18 03:58 | -36.59804 | -64.27834 | 623 ft | 7 kts | 202° |
| 2026-04-18 03:59 | -36.59817 | -64.27812 | 623 ft | 5 kts | 17° |
| 2026-04-18 03:59 | -36.59794 | -64.27803 | 624 ft | 0 kts | 14° |
| 2026-04-18 03:59 | -36.59793 | -64.27802 | 624 ft | 0 kts | 14° |
| 2026-04-18 04:00 | -36.59790 | -64.27801 | 624 ft | 0 kts | 14° |
| 2026-04-18 04:00 | -36.59664 | -64.27768 | 625 ft | 58 kts | 11° |
| 2026-04-18 04:00 | -36.58976 | -64.27598 | 626 ft | 140 kts | 11° |
| 2026-04-18 04:00 | -36.57817 | -64.27344 | 957 ft | 182 kts | 8° |
| 2026-04-18 04:01 | -36.56669 | -64.27184 | 2413 ft | 159 kts | 7° |
| 2026-04-18 04:01 | -36.55647 | -64.26918 | 3347 ft | 158 kts | 17° |
| 2026-04-18 04:01 | -36.54535 | -64.26527 | 3973 ft | 179 kts | 14° |
| 2026-04-18 04:01 | -36.53226 | -64.26171 | 4425 ft | 202 kts | 11° |
| 2026-04-18 04:02 | -36.51798 | -64.25828 | 4870 ft | 217 kts | 11° |
| 2026-04-18 04:02 | -36.50263 | -64.25455 | 5360 ft | 231 kts | 11° |
| 2026-04-18 04:02 | -36.48685 | -64.24855 | 5864 ft | 246 kts | 26° |
| 2026-04-18 04:02 | -36.47373 | -64.23444 | 6365 ft | 262 kts | 55° |
| 2026-04-18 04:03 | -36.46650 | -64.21330 | 6883 ft | 271 kts | 72° |
| 2026-04-18 04:03 | -36.46113 | -64.19054 | 7370 ft | 275 kts | 72° |
| 2026-04-18 04:03 | -36.45516 | -64.16780 | 7851 ft | 278 kts | 70° |
| 2026-04-18 04:03 | -36.44878 | -64.14528 | 8392 ft | 281 kts | 69° |
| 2026-04-18 04:04 | -36.44212 | -64.12216 | 8941 ft | 283 kts | 70° |
| 2026-04-18 04:04 | -36.43555 | -64.09912 | 9474 ft | 289 kts | 70° |
| 2026-04-18 04:04 | -36.42894 | -64.07571 | 10001 ft | 292 kts | 70° |
| 2026-04-18 04:04 | -36.42222 | -64.05180 | 10546 ft | 298 kts | 70° |
| 2026-04-18 04:05 | -36.41524 | -64.02697 | 11097 ft | 310 kts | 70° |
| 2026-04-18 04:05 | -36.40805 | -64.00138 | 11629 ft | 324 kts | 70° |
| 2026-04-18 04:05 | -36.40044 | -63.97429 | 12172 ft | 338 kts | 70° |
| 2026-04-18 04:05 | -36.39259 | -63.94638 | 12707 ft | 352 kts | 70° |
| 2026-04-18 04:06 | -36.38433 | -63.91696 | 13250 ft | 366 kts | 70° |
| 2026-04-18 04:06 | -36.37592 | -63.88703 | 13778 ft | 380 kts | 70° |
| 2026-04-18 04:06 | -36.36704 | -63.85540 | 14317 ft | 392 kts | 70° |
| 2026-04-18 04:06 | -36.35805 | -63.82326 | 14849 ft | 397 kts | 70° |
| 2026-04-18 04:07 | -36.34911 | -63.79129 | 15379 ft | 398 kts | 69° |
| 2026-04-18 04:07 | -36.33981 | -63.75909 | 15912 ft | 400 kts | 67° |
| 2026-04-18 04:07 | -36.32864 | -63.72734 | 16450 ft | 404 kts | 61° |
| 2026-04-18 04:07 | -36.31554 | -63.69645 | 16980 ft | 406 kts | 58° |
| 2026-04-18 04:08 | -36.30155 | -63.66621 | 17437 ft | 408 kts | 56° |
| 2026-04-18 04:08 | -36.28672 | -63.63509 | 17911 ft | 411 kts | 56° |
| 2026-04-18 04:08 | -36.27193 | -63.60409 | 18373 ft | 413 kts | 56° |
| 2026-04-18 04:08 | -36.25719 | -63.57296 | 18833 ft | 418 kts | 56° |
| 2026-04-18 04:09 | -36.24224 | -63.54118 | 19293 ft | 422 kts | 57° |
| 2026-04-18 04:09 | -36.22716 | -63.50889 | 19754 ft | 425 kts | 57° |
| 2026-04-18 04:09 | -36.21206 | -63.47644 | 20214 ft | 430 kts | 57° |
| 2026-04-18 04:09 | -36.19682 | -63.44368 | 20670 ft | 434 kts | 57° |
| 2026-04-18 04:10 | -36.18149 | -63.41071 | 21126 ft | 435 kts | 57° |
| 2026-04-18 04:10 | -36.16620 | -63.37775 | 21604 ft | 438 kts | 57° |
| 2026-04-18 04:10 | -36.15069 | -63.34441 | 22082 ft | 444 kts | 57° |
| 2026-04-18 04:10 | -36.13509 | -63.31094 | 22552 ft | 449 kts | 57° |
| 2026-04-18 04:11 | -36.11931 | -63.27714 | 23025 ft | 452 kts | 57° |
| 2026-04-18 04:11 | -36.10337 | -63.24305 | 23522 ft | 456 kts | 57° |
| 2026-04-18 04:11 | -36.08746 | -63.20900 | 24015 ft | 462 kts | 57° |
| 2026-04-18 04:11 | -36.07122 | -63.17429 | 24517 ft | 467 kts | 57° |
| 2026-04-18 04:12 | -36.05481 | -63.13928 | 25029 ft | 471 kts | 57° |
| 2026-04-18 04:12 | -36.03827 | -63.10405 | 25543 ft | 475 kts | 57° |
| 2026-04-18 04:12 | -36.02152 | -63.06836 | 26061 ft | 478 kts | 57° |
| 2026-04-18 04:12 | -36.00486 | -63.03289 | 26570 ft | 478 kts | 57° |
| 2026-04-18 04:13 | -35.98814 | -62.99735 | 27084 ft | 480 kts | 57° |
| 2026-04-18 04:13 | -35.97142 | -62.96184 | 27594 ft | 480 kts | 58° |
| 2026-04-18 04:13 | -35.95455 | -62.92609 | 28109 ft | 483 kts | 58° |
| 2026-04-18 04:13 | -35.93779 | -62.89064 | 28619 ft | 485 kts | 57° |
| 2026-04-18 04:14 | -35.92079 | -62.85477 | 29133 ft | 486 kts | 58° |
| 2026-04-18 04:14 | -35.90376 | -62.81880 | 29644 ft | 487 kts | 58° |
| 2026-04-18 04:14 | -35.88672 | -62.78280 | 30154 ft | 488 kts | 58° |
| 2026-04-18 04:14 | -35.86971 | -62.74688 | 30664 ft | 488 kts | 58° |
| 2026-04-18 04:15 | -35.85268 | -62.71093 | 30883 ft | 495 kts | 58° |
| 2026-04-18 04:15 | -35.81719 | -62.63632 | 30905 ft | 516 kts | 58° |
| 2026-04-18 04:16 | -35.78043 | -62.55912 | 30901 ft | 534 kts | 58° |
| 2026-04-18 04:16 | -35.74292 | -62.48047 | 30903 ft | 532 kts | 58° |
| 2026-04-18 04:17 | -35.70558 | -62.40236 | 30903 ft | 529 kts | 58° |
| 2026-04-18 04:17 | -35.66829 | -62.32466 | 30901 ft | 531 kts | 58° |
| 2026-04-18 04:18 | -35.63092 | -62.24687 | 30902 ft | 530 kts | 58° |
| 2026-04-18 04:18 | -35.59332 | -62.16890 | 30902 ft | 532 kts | 58° |
| 2026-04-18 04:19 | -35.55569 | -62.09092 | 30895 ft | 530 kts | 58° |
| 2026-04-18 04:19 | -35.51827 | -62.01351 | 30893 ft | 530 kts | 58° |
| 2026-04-18 04:20 | -35.48057 | -61.93572 | 30885 ft | 530 kts | 58° |
| 2026-04-18 04:20 | -35.44286 | -61.85809 | 30888 ft | 530 kts | 58° |
| 2026-04-18 04:21 | -35.40656 | -61.77959 | 30886 ft | 530 kts | 63° |
| 2026-04-18 04:21 | -35.38031 | -61.69628 | 30885 ft | 530 kts | 75° |
| 2026-04-18 04:22 | -35.36280 | -61.60869 | 30885 ft | 529 kts | 80° |
| 2026-04-18 04:22 | -35.34887 | -61.52049 | 30884 ft | 527 kts | 82° |
| 2026-04-18 04:23 | -35.33556 | -61.43278 | 30886 ft | 527 kts | 81° |
| 2026-04-18 04:23 | -35.32180 | -61.34475 | 30883 ft | 526 kts | 81° |
| 2026-04-18 04:24 | -35.30760 | -61.25695 | 30884 ft | 527 kts | 81° |
| 2026-04-18 04:24 | -35.29322 | -61.16996 | 30886 ft | 525 kts | 80° |
| 2026-04-18 04:25 | -35.27853 | -61.08210 | 30883 ft | 527 kts | 81° |
| 2026-04-18 04:25 | -35.26393 | -60.99486 | 30749 ft | 529 kts | 81° |
| 2026-04-18 04:25 | -35.25654 | -60.95080 | 30265 ft | 531 kts | 81° |
| 2026-04-18 04:26 | -35.24906 | -60.90638 | 29745 ft | 528 kts | 81° |
| 2026-04-18 04:26 | -35.24168 | -60.86285 | 29232 ft | 523 kts | 80° |
| 2026-04-18 04:26 | -35.23441 | -60.82009 | 28721 ft | 517 kts | 80° |
| 2026-04-18 04:26 | -35.22710 | -60.77703 | 28199 ft | 510 kts | 80° |
| 2026-04-18 04:27 | -35.21999 | -60.73512 | 27690 ft | 505 kts | 80° |
| 2026-04-18 04:27 | -35.21289 | -60.69334 | 27181 ft | 504 kts | 81° |
| 2026-04-18 04:27 | -35.20572 | -60.65135 | 26671 ft | 505 kts | 80° |
| 2026-04-18 04:27 | -35.19862 | -60.60997 | 26168 ft | 505 kts | 80° |
| 2026-04-18 04:28 | -35.19138 | -60.56785 | 25652 ft | 501 kts | 80° |
| 2026-04-18 04:28 | -35.18423 | -60.52646 | 25143 ft | 494 kts | 80° |
| 2026-04-18 04:28 | -35.17708 | -60.48518 | 24635 ft | 489 kts | 80° |
| 2026-04-18 04:28 | -35.17004 | -60.44466 | 24129 ft | 481 kts | 81° |
| 2026-04-18 04:29 | -35.16302 | -60.40406 | 23621 ft | 473 kts | 80° |
| 2026-04-18 04:29 | -35.15627 | -60.36500 | 23125 ft | 466 kts | 80° |
| 2026-04-18 04:29 | -35.14959 | -60.32660 | 22634 ft | 459 kts | 79° |
| 2026-04-18 04:29 | -35.14298 | -60.28860 | 22149 ft | 455 kts | 79° |
| 2026-04-18 04:30 | -35.13644 | -60.25092 | 21666 ft | 456 kts | 80° |
| 2026-04-18 04:30 | -35.12993 | -60.21342 | 21183 ft | 453 kts | 79° |
| 2026-04-18 04:30 | -35.12338 | -60.17600 | 20695 ft | 446 kts | 79° |
| 2026-04-18 04:30 | -35.11689 | -60.13903 | 20212 ft | 445 kts | 79° |
| 2026-04-18 04:31 | -35.11035 | -60.10170 | 19725 ft | 447 kts | 79° |
| 2026-04-18 04:31 | -35.10393 | -60.06513 | 19239 ft | 442 kts | 78° |
| 2026-04-18 04:31 | -35.09758 | -60.02903 | 18757 ft | 437 kts | 78° |
| 2026-04-18 04:31 | -35.09121 | -59.99307 | 18269 ft | 430 kts | 78° |
| 2026-04-18 04:32 | -35.08491 | -59.95752 | 17785 ft | 423 kts | 78° |
| 2026-04-18 04:32 | -35.07881 | -59.92305 | 17327 ft | 418 kts | 78° |
| 2026-04-18 04:32 | -35.07271 | -59.88858 | 16853 ft | 414 kts | 78° |
| 2026-04-18 04:32 | -35.06662 | -59.85424 | 16377 ft | 413 kts | 78° |
| 2026-04-18 04:33 | -35.06058 | -59.82039 | 15908 ft | 412 kts | 78° |
| 2026-04-18 04:33 | -35.05442 | -59.78590 | 15423 ft | 413 kts | 78° |
| 2026-04-18 04:33 | -35.04831 | -59.75159 | 14946 ft | 417 kts | 78° |
| 2026-04-18 04:33 | -35.04223 | -59.71761 | 14465 ft | 411 kts | 78° |
| 2026-04-18 04:34 | -35.03613 | -59.68363 | 13984 ft | 406 kts | 78° |
| 2026-04-18 04:34 | -35.03015 | -59.65042 | 13498 ft | 400 kts | 78° |
| 2026-04-18 04:34 | -35.02414 | -59.61711 | 13012 ft | 395 kts | 78° |
| 2026-04-18 04:34 | -35.01837 | -59.58511 | 12536 ft | 389 kts | 78° |
| 2026-04-18 04:35 | -35.01262 | -59.55314 | 12052 ft | 385 kts | 78° |
| 2026-04-18 04:35 | -35.00689 | -59.52142 | 11566 ft | 382 kts | 78° |
| 2026-04-18 04:35 | -35.00121 | -59.49009 | 11080 ft | 377 kts | 78° |
| 2026-04-18 04:35 | -34.99548 | -59.45935 | 10890 ft | 363 kts | 78° |
| 2026-04-18 04:36 | -34.98981 | -59.43002 | 10873 ft | 346 kts | 77° |
| 2026-04-18 04:36 | -34.98463 | -59.40231 | 10864 ft | 329 kts | 77° |
| 2026-04-18 04:36 | -34.97962 | -59.37616 | 10866 ft | 313 kts | 77° |
| 2026-04-18 04:36 | -34.97468 | -59.35068 | 10872 ft | 306 kts | 77° |
| 2026-04-18 04:37 | -34.96972 | -59.32525 | 10701 ft | 312 kts | 77° |
| 2026-04-18 04:37 | -34.96466 | -59.29946 | 10463 ft | 314 kts | 77° |
| 2026-04-18 04:37 | -34.95957 | -59.27357 | 10216 ft | 312 kts | 76° |
| 2026-04-18 04:37 | -34.95449 | -59.24786 | 9964 ft | 309 kts | 76° |
| 2026-04-18 04:38 | -34.94947 | -59.22264 | 9725 ft | 309 kts | 76° |
| 2026-04-18 04:38 | -34.94442 | -59.19744 | 9472 ft | 302 kts | 76° |
| 2026-04-18 04:38 | -34.93954 | -59.17305 | 9226 ft | 296 kts | 76° |
| 2026-04-18 04:38 | -34.93469 | -59.14884 | 8939 ft | 292 kts | 77° |
| 2026-04-18 04:39 | -34.92993 | -59.12499 | 8630 ft | 289 kts | 76° |
| 2026-04-18 04:39 | -34.92516 | -59.10121 | 8282 ft | 287 kts | 76° |
| 2026-04-18 04:39 | -34.92088 | -59.07748 | 7946 ft | 291 kts | 81° |
| 2026-04-18 04:39 | -34.91766 | -59.05315 | 7571 ft | 287 kts | 82° |
| 2026-04-18 04:40 | -34.91483 | -59.02964 | 7228 ft | 278 kts | 83° |
| 2026-04-18 04:40 | -34.91205 | -59.00676 | 6883 ft | 269 kts | 83° |
| 2026-04-18 04:40 | -34.91060 | -58.98435 | 6525 ft | 262 kts | 97° |
| 2026-04-18 04:40 | -34.91564 | -58.96400 | 6187 ft | 250 kts | 125° |
| 2026-04-18 04:41 | -34.92580 | -58.94747 | 5854 ft | 242 kts | 134° |
| 2026-04-18 04:41 | -34.93695 | -58.93193 | 5542 ft | 242 kts | 133° |
| 2026-04-18 04:41 | -34.94540 | -58.91440 | 5165 ft | 248 kts | 108° |
| 2026-04-18 04:41 | -34.94624 | -58.89341 | 4820 ft | 251 kts | 77° |
| 2026-04-18 04:42 | -34.93856 | -58.87460 | 4470 ft | 251 kts | 47° |
| 2026-04-18 04:42 | -34.92436 | -58.86270 | 4127 ft | 248 kts | 18° |
| 2026-04-18 04:42 | -34.90743 | -58.86067 | 3774 ft | 245 kts | 348° |
| 2026-04-18 04:42 | -34.89174 | -58.86754 | 3443 ft | 241 kts | 329° |
| 2026-04-18 04:43 | -34.87768 | -58.87848 | 3099 ft | 241 kts | 324° |
| 2026-04-18 04:43 | -34.86395 | -58.88976 | 2977 ft | 230 kts | 324° |
| 2026-04-18 04:43 | -34.85106 | -58.90017 | 3004 ft | 214 kts | 325° |
| 2026-04-18 04:43 | -34.83839 | -58.90875 | 2985 ft | 211 kts | 339° |
| 2026-04-18 04:44 | -34.82372 | -58.91150 | 2991 ft | 217 kts | 1° |
| 2026-04-18 04:44 | -34.80841 | -58.90889 | 2991 ft | 221 kts | 11° |
| 2026-04-18 04:44 | -34.79354 | -58.90525 | 2989 ft | 219 kts | 11° |
| 2026-04-18 04:44 | -34.77898 | -58.89954 | 2990 ft | 218 kts | 31° |
| 2026-04-18 04:45 | -34.76831 | -58.88667 | 2997 ft | 219 kts | 58° |
| 2026-04-18 04:45 | -34.76348 | -58.86959 | 2982 ft | 213 kts | 89° |
| 2026-04-18 04:45 | -34.76520 | -58.85189 | 2998 ft | 212 kts | 104° |
| 2026-04-18 04:45 | -34.76836 | -58.83439 | 2993 ft | 213 kts | 104° |
| 2026-04-18 04:46 | -34.77130 | -58.81679 | 2993 ft | 212 kts | 103° |
| 2026-04-18 04:46 | -34.77429 | -58.79940 | 2992 ft | 212 kts | 104° |
| 2026-04-18 04:46 | -34.77753 | -58.78180 | 2992 ft | 211 kts | 105° |
| 2026-04-18 04:46 | -34.78072 | -58.76458 | 2987 ft | 209 kts | 104° |
| 2026-04-18 04:47 | -34.78367 | -58.74788 | 2979 ft | 196 kts | 104° |
| 2026-04-18 04:47 | -34.78652 | -58.73218 | 2971 ft | 188 kts | 105° |
| 2026-04-18 04:47 | -34.78943 | -58.71679 | 2776 ft | 186 kts | 105° |
| 2026-04-18 04:47 | -34.79218 | -58.70156 | 2536 ft | 182 kts | 105° |
| 2026-04-18 04:48 | -34.79482 | -58.68679 | 2270 ft | 174 kts | 105° |
| 2026-04-18 04:48 | -34.79731 | -58.67316 | 2084 ft | 157 kts | 107° |
| 2026-04-18 04:48 | -34.79967 | -58.66037 | 1809 ft | 152 kts | 105° |
| 2026-04-18 04:48 | -34.80183 | -58.64808 | 1649 ft | 150 kts | 105° |
| 2026-04-18 04:49 | -34.80414 | -58.63552 | 1437 ft | 154 kts | 106° |
| 2026-04-18 04:49 | -34.80651 | -58.62300 | 1230 ft | 151 kts | 105° |
| 2026-04-18 04:49 | -34.80872 | -58.61066 | 1029 ft | 151 kts | 104° |
| 2026-04-18 04:49 | -34.81094 | -58.59824 | 826 ft | 148 kts | 104° |
| 2026-04-18 04:50 | -34.81313 | -58.58603 | 633 ft | 148 kts | 103° |
| 2026-04-18 04:50 | -34.81532 | -58.57392 | 435 ft | 147 kts | 103° |
| 2026-04-18 04:50 | -34.81752 | -58.56182 | 243 ft | 147 kts | 103° |
| 2026-04-18 04:50 | -34.81965 | -58.54973 | 76 ft | 144 kts | 103° |
| 2026-04-18 04:51 | -34.82153 | -58.53945 | 72 ft | 98 kts | 103° |
| 2026-04-18 04:51 | -34.82262 | -58.53337 | 71 ft | 49 kts | 102° |
| 2026-04-18 04:51 | -34.82305 | -58.53091 | 71 ft | 18 kts | 104° |
| 2026-04-18 04:51 | -34.82329 | -58.52948 | 71 ft | 12 kts | 85° |
| 2026-04-18 04:52 | -34.82276 | -58.52893 | 71 ft | 11 kts | 354° |
| 2026-04-18 04:52 | -34.82179 | -58.52921 | 70 ft | 17 kts | 343° |
| 2026-04-18 04:52 | -34.82060 | -58.52968 | 69 ft | 13 kts | 334° |
| 2026-04-18 04:52 | -34.82014 | -58.53080 | 70 ft | 17 kts | 285° |
| 2026-04-18 04:53 | -34.81982 | -58.53234 | 71 ft | 20 kts | 283° |
| 2026-04-18 04:53 | -34.81942 | -58.53421 | 73 ft | 23 kts | 284° |
| 2026-04-18 04:53 | -34.81909 | -58.53576 | 75 ft | 11 kts | 292° |
| 2026-04-18 04:53 | -34.81868 | -58.53644 | 77 ft | 9 kts | 321° |
| 2026-04-18 04:54 | -34.81798 | -58.53690 | 79 ft | 14 kts | 336° |
| 2026-04-18 04:54 | -34.81690 | -58.53753 | 82 ft | 17 kts | 332° |
| 2026-04-18 04:54 | -34.81623 | -58.53753 | 84 ft | 8 kts | 33° |
| 2026-04-18 04:54 | -34.81573 | -58.53729 | 84 ft | 6 kts | 349° |
| 2026-04-18 04:55 | -34.81538 | -58.53748 | 85 ft | 4 kts | 330° |
| 2026-04-18 04:55 | -34.81518 | -58.53763 | 86 ft | 3 kts | 327° |
| 2026-04-18 04:55 | -34.81498 | -58.53779 | 87 ft | 3 kts | 326° |
| 2026-04-18 04:56 | -34.81493 | -58.53783 | 87 ft | 0 kts | 326° |